Time;durP1;ratioP1;P1;durP2;ratioP2;P2;SDS_P1;SDS_P2;PMS_P1;PMS_P2;Temp;Humidity;BMP_temperature;BMP_pressure;BME280_temperature;BME280_humidity;BME280_pressure;Samples;Min_cycle;Max_cycle;Signal;HPM_P1;HPM_P2
2021/10/21 00:02:07;;;;;;;38.83;22.73;;;;;;;12.63;64.06;100558.34;5049005;28;20196;-49
2021/10/21 00:04:33;;;;;;;38.85;24.45;;;;;;;12.69;63.25;100560.22;5049098;28;20113;-48
2021/10/21 00:06:58;;;;;;;36.28;23.05;;;;;;;12.64;63.97;100561.84;5048927;28;20079;-51
2021/10/21 00:09:23;;;;;;;31.73;22.13;;;;;;;12.67;64.46;100556.09;5048987;28;20025;-49
2021/10/21 00:11:49;;;;;;;33.63;22.00;;;;;;;12.62;64.69;100553.19;5048713;28;20017;-49
2021/10/21 00:14:14;;;;;;;37.20;22.60;;;;;;;12.55;64.31;100544.34;5048734;28;20024;-49
2021/10/21 00:16:40;;;;;;;36.38;21.05;;;;;;;12.68;63.24;100553.25;5048939;28;20468;-49
2021/10/21 00:19:05;;;;;;;33.10;21.50;;;;;;;12.67;63.20;100548.91;5048678;28;20071;-51
2021/10/21 00:21:31;;;;;;;31.05;22.13;;;;;;;12.67;62.95;100542.75;5048588;28;20021;-48
2021/10/21 00:23:56;;;;;;;31.17;21.33;;;;;;;12.65;62.96;100548.28;5049090;28;20025;-48
2021/10/21 00:26:21;;;;;;;33.38;21.50;;;;;;;12.66;62.71;100541.09;5048461;28;20509;-49
2021/10/21 00:28:47;;;;;;;32.50;21.38;;;;;;;12.65;63.11;100550.97;5048376;28;20059;-49
2021/10/21 00:31:13;;;;;;;36.35;22.10;;;;;;;12.67;62.48;100535.56;5048276;28;20025;-48
2021/10/21 00:33:38;;;;;;;30.98;21.63;;;;;;;12.61;63.32;100533.69;5048638;28;20159;-49
2021/10/21 00:36:04;;;;;;;29.90;20.80;;;;;;;12.43;63.20;100530.69;5051653;28;20025;-49
2021/10/21 00:38:29;;;;;;;33.58;21.77;;;;;;;12.45;63.23;100531.34;5052461;28;20477;-51
2021/10/21 00:40:55;;;;;;;32.25;21.35;;;;;;;12.50;63.18;100532.38;5052120;28;20499;-50
2021/10/21 00:43:20;;;;;;;36.42;22.42;;;;;;;12.24;64.33;100529.56;5052179;28;20028;-50
2021/10/21 00:45:46;;;;;;;35.50;21.98;;;;;;;12.12;64.96;100524.75;5052166;28;20044;-48
2021/10/21 00:48:11;;;;;;;32.88;21.98;;;;;;;12.24;64.28;100526.88;5051842;28;20413;-49
2021/10/21 00:50:37;;;;;;;32.40;21.05;;;;;;;12.34;64.40;100511.38;5052069;28;20025;-51
2021/10/21 00:53:03;;;;;;;31.60;21.13;;;;;;;12.26;63.82;100515.03;5051698;28;20503;-52
2021/10/21 00:55:28;;;;;;;36.42;21.98;;;;;;;12.24;63.97;100519.72;5050464;28;20397;-49
2021/10/21 00:57:54;;;;;;;33.30;21.27;;;;;;;12.31;63.91;100512.56;5051895;28;20025;-52
2021/10/21 01:00:20;;;;;;;34.67;22.00;;;;;;;12.47;62.84;100506.09;5051863;28;20025;-50
2021/10/21 01:02:45;;;;;;;31.73;22.00;;;;;;;12.36;63.45;100509.31;5051702;28;20017;-51
2021/10/21 01:05:11;;;;;;;35.05;23.27;;;;;;;12.32;62.95;100508.06;5051731;28;20449;-49
2021/10/21 01:07:37;;;;;;;34.53;22.27;;;;;;;12.38;63.71;100507.28;5051765;28;20078;-49
2021/10/21 01:10:09;;;;;;;36.17;22.58;;;;;;;12.25;64.30;100497.34;5051971;28;20103;-47
2021/10/21 01:12:36;;;;;;;36.33;22.27;;;;;;;12.11;64.19;100491.09;5051907;28;20020;-51
2021/10/21 01:15:26;;;;;;;38.47;23.63;;;;;;;12.20;64.43;100490.94;5051691;28;20070;-48
2021/10/21 01:17:52;;;;;;;33.22;22.73;;;;;;;12.08;64.15;100486.16;5051856;28;20021;-49
2021/10/21 01:20:17;;;;;;;35.17;22.55;;;;;;;12.19;63.33;100491.97;5051362;28;20457;-48
2021/10/21 01:22:43;;;;;;;36.63;23.45;;;;;;;12.03;64.19;100458.41;5051654;28;20029;-51
2021/10/21 01:25:09;;;;;;;35.92;22.50;;;;;;;12.07;64.52;100481.84;5051652;28;20452;-48
2021/10/21 01:27:34;;;;;;;34.88;22.38;;;;;;;12.02;64.17;100481.59;5051258;28;20068;-52
2021/10/21 01:30:00;;;;;;;37.10;22.23;;;;;;;12.15;64.46;100488.03;5051445;28;20090;-49
2021/10/21 01:32:26;;;;;;;36.28;23.13;;;;;;;12.07;64.46;100479.19;5051100;28;20041;-50
2021/10/21 01:34:52;;;;;;;38.67;23.35;;;;;;;12.01;64.38;100481.78;5051325;28;20105;-48
2021/10/21 01:37:17;;;;;;;36.35;22.33;;;;;;;11.82;64.82;100480.59;5051271;28;20032;-48
2021/10/21 01:39:43;;;;;;;38.67;22.85;;;;;;;12.08;64.01;100480.00;5051055;28;20353;-48
2021/10/21 01:42:09;;;;;;;36.55;22.52;;;;;;;12.20;62.77;100481.09;5051068;28;20560;-50
2021/10/21 01:44:34;;;;;;;39.78;22.98;;;;;;;12.10;63.61;100481.44;5050730;28;20032;-50
2021/10/21 01:47:00;;;;;;;36.72;23.15;;;;;;;12.17;62.88;100475.34;5050418;28;20488;-48
2021/10/21 01:49:25;;;;;;;33.47;22.13;;;;;;;12.01;63.76;100479.94;5051063;28;20032;-51
2021/10/21 01:51:51;;;;;;;33.25;22.08;;;;;;;12.05;63.79;100470.56;5050920;28;20025;-48
2021/10/21 01:54:17;;;;;;;36.75;23.02;;;;;;;12.09;63.53;100471.81;5050585;28;20157;-50
2021/10/21 01:56:42;;;;;;;36.63;22.02;;;;;;;11.95;63.27;100474.56;5050805;28;20017;-50
2021/10/21 01:59:08;;;;;;;33.97;22.45;;;;;;;11.81;64.46;100468.31;5050494;28;20511;-51
2021/10/21 02:01:33;;;;;;;39.05;22.58;;;;;;;11.91;64.05;100468.81;5050731;28;20059;-48
2021/10/21 02:03:59;;;;;;;33.42;22.10;;;;;;;11.86;64.80;100465.84;5049226;28;20040;-48
2021/10/21 02:06:25;;;;;;;34.25;21.88;;;;;;;11.82;64.06;100457.44;5050447;28;20032;-49
2021/10/21 02:08:51;;;;;;;35.50;21.58;;;;;;;11.82;64.07;100456.59;5049618;28;20032;-48
2021/10/21 02:11:16;;;;;;;36.45;21.90;;;;;;;11.79;64.83;100460.50;5050538;28;20021;-50
2021/10/21 02:13:41;;;;;;;33.05;20.88;;;;;;;11.79;64.55;100459.66;5049202;28;20032;-49
2021/10/21 02:16:07;;;;;;;29.58;19.80;;;;;;;11.80;64.43;100455.97;5050814;28;20042;-49
2021/10/21 02:18:33;;;;;;;30.77;20.67;;;;;;;11.78;64.63;100453.50;5050369;28;20020;-51
2021/10/21 02:20:58;;;;;;;31.30;20.92;;;;;;;11.69;64.77;100462.66;5050600;28;20136;-49
2021/10/21 02:23:24;;;;;;;28.95;20.65;;;;;;;11.70;65.17;100466.97;5048840;28;20453;-50
2021/10/21 02:25:49;;;;;;;31.88;20.40;;;;;;;11.63;64.86;100463.44;5050286;28;20033;-49
2021/10/21 02:28:15;;;;;;;32.78;21.73;;;;;;;11.47;64.96;100445.88;5050345;28;20449;-48
2021/10/21 02:30:40;;;;;;;32.03;20.75;;;;;;;11.67;65.19;100462.88;5050434;28;20393;-49
2021/10/21 02:33:06;;;;;;;31.45;21.08;;;;;;;11.72;64.60;100459.59;5050011;28;20151;-49
2021/10/21 02:35:31;;;;;;;32.10;21.13;;;;;;;11.67;64.48;100459.34;5050426;28;20036;-51
2021/10/21 02:37:57;;;;;;;32.53;20.77;;;;;;;11.73;64.46;100459.41;5050183;28;20044;-49
2021/10/21 02:40:22;;;;;;;33.80;21.35;;;;;;;11.50;64.55;100466.81;5050345;28;20036;-48
2021/10/21 02:42:48;;;;;;;33.88;19.83;;;;;;;11.40;65.40;100460.97;5049567;28;20036;-49
2021/10/21 02:45:13;;;;;;;33.70;21.48;;;;;;;11.24;65.82;100457.56;5050237;28;20036;-51
2021/10/21 02:47:40;;;;;;;33.75;21.58;;;;;;;11.34;65.57;100451.91;5050133;28;20033;-50
2021/10/21 02:50:05;;;;;;;29.85;20.80;;;;;;;11.42;64.71;100459.75;5050020;28;20424;-48
2021/10/21 02:52:31;;;;;;;31.30;20.23;;;;;;;11.29;65.88;100462.31;5050162;28;20021;-49
2021/10/21 02:54:56;;;;;;;29.90;19.58;;;;;;;11.31;65.38;100458.44;5049975;28;20098;-50
2021/10/21 02:57:22;;;;;;;30.77;19.60;;;;;;;11.34;65.41;100458.06;5048832;28;20037;-50
2021/10/21 02:59:47;;;;;;;29.33;19.13;;;;;;;11.52;65.36;100451.47;5049771;28;20032;-49
2021/10/21 03:02:12;;;;;;;30.65;19.13;;;;;;;11.60;64.57;100456.66;5049557;28;20029;-52
2021/10/21 03:04:38;;;;;;;31.58;20.10;;;;;;;11.68;63.66;100455.69;5049556;28;20402;-50
2021/10/21 03:07:03;;;;;;;29.02;19.70;;;;;;;11.62;64.38;100459.94;5049560;28;20086;-49
2021/10/21 03:09:29;;;;;;;30.52;19.27;;;;;;;11.65;63.79;100450.72;5049330;28;20032;-48
2021/10/21 03:11:54;;;;;;;38.90;22.83;;;;;;;11.60;64.27;100445.97;5047820;28;20028;-49
2021/10/21 03:14:20;;;;;;;38.55;24.40;;;;;;;11.49;64.60;100454.50;5049142;28;20024;-51
2021/10/21 03:16:45;;;;;;;47.17;27.95;;;;;;;11.50;64.46;100441.00;5049364;28;20032;-49
2021/10/21 03:19:11;;;;;;;43.67;25.45;;;;;;;11.53;64.21;100439.78;5049228;28;20021;-49
2021/10/21 03:21:36;;;;;;;33.90;21.63;;;;;;;11.51;64.20;100442.63;5049133;28;20524;-49
2021/10/21 03:24:02;;;;;;;32.80;20.60;;;;;;;11.51;63.88;100439.94;5049092;28;20059;-48
2021/10/21 03:26:27;;;;;;;31.08;20.27;;;;;;;11.34;65.31;100430.59;5049296;28;20029;-51
2021/10/21 03:28:53;;;;;;;31.13;20.50;;;;;;;11.31;64.82;100434.47;5049234;28;20025;-50
2021/10/21 03:31:19;;;;;;;29.52;19.15;;;;;;;11.20;65.85;100439.50;5048960;28;20052;-50
2021/10/21 03:33:44;;;;;;;30.30;19.02;;;;;;;11.12;65.70;100433.28;5049180;28;20075;-49
2021/10/21 03:36:10;;;;;;;32.40;20.30;;;;;;;11.11;65.04;100436.13;5048944;28;20056;-49
2021/10/21 03:38:36;;;;;;;30.58;19.95;;;;;;;11.25;65.21;100429.91;5049390;28;20021;-49
2021/10/21 03:41:02;;;;;;;30.70;19.38;;;;;;;10.93;66.03;100424.06;5049085;28;20156;-49
2021/10/21 03:43:27;;;;;;;29.13;20.13;;;;;;;10.94;66.12;100430.22;5048776;28;20025;-49
2021/10/21 03:45:53;;;;;;;29.83;19.67;;;;;;;11.03;65.26;100425.59;5048782;28;20056;-49
2021/10/21 03:48:19;;;;;;;31.38;19.70;;;;;;;11.10;65.46;100426.47;5048854;28;20452;-52
2021/10/21 03:50:44;;;;;;;32.63;19.33;;;;;;;11.18;64.41;100414.88;5049020;28;20021;-52
2021/10/21 03:53:11;;;;;;;30.55;19.13;;;;;;;11.19;64.59;100422.66;5047914;28;20021;-51
2021/10/21 03:55:40;;;;;;;30.55;19.75;;;;;;;11.24;63.76;100427.44;5048969;28;20021;-49
2021/10/21 03:58:05;;;;;;;28.60;19.38;;;;;;;11.11;63.48;100385.50;5049046;28;20017;-48
2021/10/21 04:00:31;;;;;;;30.10;19.92;;;;;;;11.28;64.40;100416.19;5049128;28;20029;-51
2021/10/21 04:02:56;;;;;;;29.08;19.17;;;;;;;10.95;65.31;100416.72;5048405;28;20161;-48
2021/10/21 04:05:23;;;;;;;32.30;20.55;;;;;;;10.79;65.39;100408.13;5048696;28;20040;-49
2021/10/21 04:07:49;;;;;;;30.52;19.65;;;;;;;10.85;65.23;100408.22;5048642;28;20025;-52
2021/10/21 04:10:14;;;;;;;34.08;19.58;;;;;;;10.86;65.26;100411.69;5052564;28;20503;-50
2021/10/21 04:12:40;;;;;;;31.08;19.17;;;;;;;10.89;65.01;100411.28;5052605;28;20025;-51
2021/10/21 04:15:06;;;;;;;31.63;20.05;;;;;;;10.92;64.78;100410.94;5052550;28;20017;-48
2021/10/21 04:17:32;;;;;;;33.13;20.05;;;;;;;10.99;65.23;100411.00;5052897;28;20322;-49
2021/10/21 04:19:57;;;;;;;29.67;19.85;;;;;;;11.01;65.02;100406.31;5052674;28;20096;-50
2021/10/21 04:22:22;;;;;;;30.48;19.42;;;;;;;11.10;64.37;100407.81;5052325;28;20067;-51
2021/10/21 04:24:48;;;;;;;28.83;19.38;;;;;;;10.94;64.93;100396.41;5051912;28;20523;-52
2021/10/21 04:27:13;;;;;;;28.75;19.33;;;;;;;10.99;64.75;100403.03;5051950;28;20106;-50
2021/10/21 04:29:39;;;;;;;32.15;20.88;;;;;;;11.01;64.30;100401.00;5052536;28;20025;-49
2021/10/21 04:32:05;;;;;;;38.75;24.83;;;;;;;10.96;64.32;100397.03;5051958;28;20056;-49
2021/10/21 04:34:30;;;;;;;39.42;25.75;;;;;;;11.01;65.02;100393.81;5052284;28;20447;-51
2021/10/21 04:36:56;;;;;;;37.97;22.10;;;;;;;11.09;64.18;100391.03;5052341;28;20117;-49
2021/10/21 04:39:21;;;;;;;32.42;21.67;;;;;;;11.02;64.54;100394.63;5051930;28;20021;-49
2021/10/21 04:41:47;;;;;;;34.72;21.70;;;;;;;10.98;64.51;100388.88;5051909;28;20083;-49
2021/10/21 04:44:13;;;;;;;34.35;20.52;;;;;;;10.91;64.97;100394.13;5050595;28;20041;-50
2021/10/21 04:46:38;;;;;;;136.95;84.72;;;;;;;10.74;65.44;100390.06;5052114;28;20025;-50
2021/10/21 04:49:03;;;;;;;127.35;80.28;;;;;;;10.72;65.47;100392.09;5051793;28;20445;-48
2021/10/21 04:51:29;;;;;;;39.50;23.75;;;;;;;9.78;71.93;100390.06;5051707;28;20097;-49
2021/10/21 04:53:54;;;;;;;38.45;21.05;;;;;;;9.65;73.85;100393.34;5051386;28;20048;-49
2021/10/21 04:56:20;;;;;;;105.68;60.40;;;;;;;10.34;69.52;100398.41;5051653;28;20032;-49
2021/10/21 04:58:45;;;;;;;93.60;53.10;;;;;;;10.02;70.97;100396.13;5051444;28;20454;-50
2021/10/21 05:01:11;;;;;;;37.20;21.42;;;;;;;9.83;72.39;100394.84;5051420;28;20109;-48
2021/10/21 05:03:36;;;;;;;32.85;20.40;;;;;;;10.03;71.50;100393.25;5051211;28;20140;-50
2021/10/21 05:06:02;;;;;;;27.75;19.08;;;;;;;10.51;70.11;100390.22;5051036;28;20032;-48
2021/10/21 05:08:27;;;;;;;27.70;18.77;;;;;;;11.20;66.42;100391.53;5051501;28;20535;-52
2021/10/21 05:10:52;;;;;;;27.80;18.00;;;;;;;11.63;64.86;100402.97;5051067;28;20036;-49
2021/10/21 05:13:18;;;;;;;30.60;19.10;;;;;;;11.93;65.42;100395.56;5043190;28;20128;-52
2021/10/21 05:15:44;;;;;;;31.77;20.15;;;;;;;12.09;65.72;100399.78;5034869;28;20029;-49
2021/10/21 05:18:09;;;;;;;37.03;23.23;;;;;;;12.45;62.64;100398.72;5050833;28;20330;-52
2021/10/21 05:20:35;;;;;;;32.90;20.35;;;;;;;12.69;61.42;100393.84;5042120;28;20186;-49
2021/10/21 05:23:01;;;;;;;35.55;19.65;;;;;;;12.79;60.59;100396.94;5030840;28;20024;-52
2021/10/21 05:25:27;;;;;;;27.88;18.48;;;;;;;12.87;60.97;100393.25;5030741;28;20021;-49
2021/10/21 05:27:52;;;;;;;29.67;19.20;;;;;;;13.06;60.80;100394.31;5031016;28;20111;-49
2021/10/21 05:30:18;;;;;;;33.50;19.13;;;;;;;13.36;59.20;100394.78;5030957;28;20037;-52
2021/10/21 05:32:43;;;;;;;32.97;18.35;;;;;;;13.50;58.52;100398.28;5031174;28;20091;-51
2021/10/21 05:35:09;;;;;;;34.65;19.10;;;;;;;13.78;57.88;100394.53;5031272;28;20028;-50
2021/10/21 05:37:34;;;;;;;33.28;19.27;;;;;;;13.81;58.18;100397.63;5028900;28;20037;-49
2021/10/21 05:40:00;;;;;;;31.73;17.95;;;;;;;14.14;57.21;100390.53;5028944;28;20021;-51
2021/10/21 05:42:25;;;;;;;30.00;17.88;;;;;;;14.39;56.82;100396.00;5030928;28;20025;-50
2021/10/21 05:44:51;;;;;;;34.75;19.40;;;;;;;14.63;56.25;100389.13;5048626;28;20077;-49
2021/10/21 05:47:17;;;;;;;33.25;19.20;;;;;;;14.92;55.02;100394.94;5046134;28;20357;-49
2021/10/21 05:49:42;;;;;;;31.20;18.33;;;;;;;15.21;53.73;100398.84;5048384;28;20031;-50
2021/10/21 05:52:09;;;;;;;44.75;18.95;;;;;;;15.54;52.91;100395.91;5048492;28;20439;-49
2021/10/21 05:54:34;;;;;;;35.53;18.65;;;;;;;15.61;51.29;100395.81;5050003;28;20025;-49
2021/10/21 05:57:00;;;;;;;37.40;19.65;;;;;;;15.92;50.85;100397.63;5050493;28;20027;-49
2021/10/21 05:59:25;;;;;;;30.77;18.50;;;;;;;15.80;50.62;100407.44;5049125;28;20531;-52
2021/10/21 06:01:51;;;;;;;35.22;18.60;;;;;;;15.34;52.31;100373.78;5050567;28;20029;-49
2021/10/21 06:04:16;;;;;;;34.75;19.63;;;;;;;15.62;51.03;100397.47;5050639;28;20029;-48
2021/10/21 06:06:45;;;;;;;31.65;18.77;;;;;;;15.56;52.88;100401.88;5049722;28;20389;-48
2021/10/21 06:09:10;;;;;;;28.50;17.83;;;;;;;15.85;51.13;100404.91;5050352;28;20032;-48
2021/10/21 06:11:37;;;;;;;27.70;17.00;;;;;;;16.28;50.24;100408.56;5050648;28;20042;-49
2021/10/21 06:14:05;;;;;;;24.70;16.70;;;;;;;16.51;49.45;100402.53;5050143;28;20376;-47
2021/10/21 06:16:31;;;;;;;32.15;17.40;;;;;;;17.01;49.91;100402.25;5050592;28;20124;-51
2021/10/21 06:18:56;;;;;;;29.17;16.92;;;;;;;17.17;48.60;100392.69;5050610;28;20024;-51
2021/10/21 06:21:23;;;;;;;27.88;16.27;;;;;;;17.58;47.73;100402.56;5050165;28;20021;-51
2021/10/21 06:23:49;;;;;;;33.17;17.02;;;;;;;17.72;46.35;100392.38;5050674;28;20365;-50
2021/10/21 06:26:17;;;;;;;29.20;16.52;;;;;;;17.88;45.69;100404.38;5050832;28;20029;-49
2021/10/21 06:28:47;;;;;;;28.35;17.45;;;;;;;17.62;46.09;100394.03;5051047;28;20040;-49
2021/10/21 06:31:13;;;;;;;25.05;16.70;;;;;;;17.62;46.44;100391.34;5050262;28;20048;-49
2021/10/21 06:33:39;;;;;;;30.70;17.25;;;;;;;17.88;45.36;100398.16;5050611;28;20489;-47
2021/10/21 06:36:05;;;;;;;25.85;16.88;;;;;;;18.27;44.76;100401.94;5049994;28;20121;-49
2021/10/21 06:38:30;;;;;;;27.42;15.90;;;;;;;18.71;44.36;100396.84;5049907;28;20029;-50
2021/10/21 06:40:55;;;;;;;29.90;16.13;;;;;;;18.97;43.50;100386.56;5048843;28;20028;-48
2021/10/21 06:43:21;;;;;;;28.38;17.33;;;;;;;18.86;44.29;100390.16;5049731;28;20039;-50
2021/10/21 06:45:46;;;;;;;26.50;16.67;;;;;;;18.94;44.99;100389.75;5049856;28;20102;-49
2021/10/21 06:48:12;;;;;;;30.60;16.80;;;;;;;19.72;42.56;100390.75;5064137;28;20526;-48
2021/10/21 06:50:37;;;;;;;24.77;16.60;;;;;;;20.19;41.50;100388.66;5069286;28;20024;-48
2021/10/21 06:53:03;;;;;;;28.80;17.27;;;;;;;20.22;39.92;100369.22;5069385;28;20028;-47
2021/10/21 06:55:28;;;;;;;26.77;16.15;;;;;;;20.30;40.52;100393.13;5069283;28;20035;-48
2021/10/21 06:57:58;;;;;;;24.10;15.60;;;;;;;20.17;41.25;100393.50;5069618;28;20040;-46
2021/10/21 07:00:24;;;;;;;23.83;15.95;;;;;;;20.47;40.14;100391.16;5069869;28;20109;-47
2021/10/21 07:02:50;;;;;;;24.15;16.25;;;;;;;20.78;39.22;100390.69;5069447;28;20052;-49
2021/10/21 07:05:16;;;;;;;26.38;16.50;;;;;;;21.07;38.76;100388.53;5069467;28;20043;-47
2021/10/21 07:07:43;;;;;;;23.30;16.02;;;;;;;21.19;38.62;100378.34;5064565;28;20027;-50
2021/10/21 07:10:09;;;;;;;33.30;17.48;;;;;;;21.32;38.27;100377.09;5049976;28;20029;-49
2021/10/21 07:12:38;;;;;;;28.98;16.95;;;;;;;20.68;39.25;100377.91;5049631;28;20032;-50
2021/10/21 07:15:04;;;;;;;;;;;;;;;21.27;38.23;100371.66;5050170;28;20104;-48
2021/10/21 07:17:30;;;;;;;28.17;16.95;;;;;;;20.89;39.37;100365.38;5049352;28;20359;-50
2021/10/21 07:19:55;;;;;;;26.58;15.32;;;;;;;21.18;38.77;100355.06;5047986;28;20029;-49
2021/10/21 07:22:21;;;;;;;27.88;15.20;;;;;;;21.67;38.48;100362.19;5049228;28;20040;-49
2021/10/21 07:24:47;;;;;;;25.17;15.88;;;;;;;22.23;37.25;100357.00;5049560;28;20037;-46
2021/10/21 07:27:12;;;;;;;25.85;16.50;;;;;;;22.51;35.75;100351.44;5049313;28;20138;-47
2021/10/21 07:29:38;;;;;;;21.65;14.95;;;;;;;22.82;35.80;100346.88;5049593;28;20547;-50
2021/10/21 07:32:03;;;;;;;27.77;16.67;;;;;;;23.15;34.92;100353.69;5049374;28;20045;-48
2021/10/21 07:34:29;;;;;;;29.13;16.83;;;;;;;22.91;35.62;100344.44;5048995;28;20035;-47
2021/10/21 07:36:55;;;;;;;28.15;16.98;;;;;;;22.83;35.74;100330.31;5049408;28;20028;-47
2021/10/21 07:39:22;;;;;;;29.63;16.42;;;;;;;22.91;35.01;100328.16;5049232;28;20504;-47
2021/10/21 07:41:51;;;;;;;25.45;16.20;;;;;;;22.93;34.65;100320.56;5049182;28;20537;-46
2021/10/21 07:44:17;;;;;;;23.83;15.13;;;;;;;22.94;35.29;100316.75;5053233;28;20096;-50
2021/10/21 07:46:46;;;;;;;26.38;15.77;;;;;;;22.69;35.19;100312.94;5058119;28;20039;-48
2021/10/21 07:49:11;;;;;;;26.27;15.07;;;;;;;22.01;36.91;100313.88;5075719;28;20131;-48
2021/10/21 07:51:38;;;;;;;26.20;15.75;;;;;;;22.75;35.56;100306.44;5075533;28;20040;-49
2021/10/21 07:54:04;;;;;;;23.33;16.25;;;;;;;23.16;34.36;100300.22;5075956;28;20028;-50
2021/10/21 07:56:29;;;;;;;24.95;15.35;;;;;;;23.22;34.32;100297.19;5076064;28;20085;-48
2021/10/21 07:58:55;;;;;;;21.90;14.93;;;;;;;22.99;35.33;100295.84;5075954;28;20396;-47
2021/10/21 08:01:21;;;;;;;22.88;15.45;;;;;;;23.52;34.83;100289.28;5075870;28;20024;-47
2021/10/21 08:03:46;;;;;;;19.58;14.95;;;;;;;24.10;33.63;100292.28;5075740;28;20548;-46
2021/10/21 08:06:12;;;;;;;22.70;15.60;;;;;;;24.14;32.88;100287.94;5075727;28;20025;-47
2021/10/21 08:08:38;;;;;;;30.63;17.88;;;;;;;22.66;34.71;100278.25;5055721;28;20104;-49
2021/10/21 08:11:03;;;;;;;31.30;18.45;;;;;;;22.71;34.91;100277.41;5055642;28;20039;-46
2021/10/21 08:13:29;;;;;;;21.52;16.70;;;;;;;23.40;34.24;100276.81;5055671;28;20458;-47
2021/10/21 08:15:56;;;;;;;20.83;15.30;;;;;;;23.87;33.58;100276.66;5055281;28;20102;-48
2021/10/21 08:18:22;;;;;;;24.05;16.70;;;;;;;23.90;33.53;100273.41;5055517;28;20029;-49
2021/10/21 08:20:48;;;;;;;23.67;15.98;;;;;;;23.78;33.34;100274.53;5053937;28;20032;-48
2021/10/21 08:23:13;;;;;;;20.52;15.30;;;;;;;23.67;33.09;100259.34;5055268;28;20071;-47
2021/10/21 08:25:39;;;;;;;20.17;15.27;;;;;;;23.86;33.04;100265.00;5055954;28;20033;-48
2021/10/21 08:28:04;;;;;;;19.15;13.98;;;;;;;24.24;33.86;100254.44;5056325;28;20499;-48
2021/10/21 08:30:32;;;;;;;20.05;14.07;;;;;;;24.69;32.83;100249.75;5056123;28;20032;-47
2021/10/21 08:32:58;;;;;;;20.63;14.70;;;;;;;24.95;32.19;100239.44;5056138;28;20045;-47
2021/10/21 08:35:28;;;;;;;20.48;15.63;;;;;;;25.12;31.47;100238.22;5056108;28;20017;-48
2021/10/21 08:37:54;;;;;;;20.92;15.18;;;;;;;25.05;31.28;100237.72;5056304;28;20024;-49
2021/10/21 08:40:19;;;;;;;26.65;18.55;;;;;;;22.88;34.13;100239.16;5055886;28;20028;-47
2021/10/21 08:42:46;;;;;;;28.55;18.67;;;;;;;22.38;35.46;100238.91;5055844;28;20056;-47
2021/10/21 08:45:12;;;;;;;24.63;18.58;;;;;;;22.64;36.04;100237.00;5056062;28;20029;-50
2021/10/21 08:47:50;;;;;;;24.67;18.25;;;;;;;23.34;34.92;100229.06;5055891;28;20028;-46
2021/10/21 08:50:16;;;;;;;30.60;18.80;;;;;;;23.31;33.96;100226.88;5053669;28;20025;-47
2021/10/21 08:52:43;;;;;;;29.35;19.30;;;;;;;22.36;35.40;100225.59;5055968;28;20016;-48
2021/10/21 08:55:09;;;;;;;26.60;18.90;;;;;;;22.94;34.72;100217.19;5053346;28;20232;-48
2021/10/21 08:57:35;;;;;;;27.00;19.20;;;;;;;23.38;33.95;100230.13;5053094;28;20098;-48
2021/10/21 09:00:00;;;;;;;31.65;20.02;;;;;;;23.66;33.83;100216.16;5052677;28;20029;-47
2021/10/21 09:02:43;;;;;;;32.35;21.65;;;;;;;22.35;35.56;100202.31;5052456;28;20044;-46
2021/10/21 09:08:13;;;;;;;27.67;18.73;;;;;;;23.81;33.39;100207.94;5051652;28;20051;-49
2021/10/21 09:10:49;;;;;;;27.05;19.48;;;;;;;23.23;33.97;100203.81;5051891;28;20039;-49
2021/10/21 09:13:25;;;;;;;29.77;20.45;;;;;;;22.78;34.63;100202.00;5051871;28;20035;-47
2021/10/21 09:15:51;;;;;;;29.13;18.42;;;;;;;22.99;35.11;100194.63;5052766;28;20032;-48
2021/10/21 09:18:17;;;;;;;29.38;20.40;;;;;;;23.28;34.91;100196.75;5052367;28;20075;-48
2021/10/21 09:20:43;;;;;;;27.05;18.77;;;;;;;23.74;34.18;100189.22;5051917;28;20218;-50
2021/10/21 09:23:10;;;;;;;28.33;18.70;;;;;;;23.41;34.98;100175.22;5053028;28;20083;-49
2021/10/21 09:25:36;;;;;;;28.55;19.13;;;;;;;23.30;34.99;100181.00;5052399;28;20357;-49
2021/10/21 09:28:15;;;;;;;27.45;19.63;;;;;;;23.35;34.69;100183.69;5050176;28;20036;-48
2021/10/21 09:30:50;;;;;;;28.60;19.80;;;;;;;23.10;35.49;100171.03;5050862;28;20090;-47
2021/10/21 09:33:16;;;;;;;25.08;19.30;;;;;;;23.36;35.25;100156.28;5049701;28;20114;-48
2021/10/21 09:35:53;;;;;;;27.50;19.02;;;;;;;22.92;35.89;100161.53;5050082;28;20033;-48
2021/10/21 09:38:19;;;;;;;24.92;18.90;;;;;;;23.40;34.18;100160.03;5048950;28;20056;-47
2021/10/21 09:40:44;;;;;;;26.63;19.27;;;;;;;22.85;35.15;100153.69;5050421;28;20457;-46
2021/10/21 09:43:14;;;;;;;26.38;18.95;;;;;;;21.99;36.69;100147.19;5048596;28;20028;-47
2021/10/21 09:45:41;;;;;;;25.13;18.15;;;;;;;21.98;37.78;100140.16;5049773;28;20050;-47
2021/10/21 09:48:08;;;;;;;24.10;17.77;;;;;;;22.77;35.78;100137.97;5063566;28;20020;-47
2021/10/21 09:50:42;;;;;;;24.25;17.65;;;;;;;22.48;36.73;100137.75;5069506;28;20028;-47
2021/10/21 09:53:14;;;;;;;22.73;17.20;;;;;;;23.16;35.92;100134.63;5070086;28;20218;-47
2021/10/21 09:55:40;;;;;;;26.77;17.50;;;;;;;23.51;34.84;100138.25;5070421;28;20344;-47
2021/10/21 09:58:08;;;;;;;27.85;16.95;;;;;;;22.80;35.32;100123.88;5070818;28;20026;-46
2021/10/21 10:00:35;;;;;;;24.25;17.65;;;;;;;22.12;36.58;100129.59;5071401;28;20093;-47
2021/10/21 10:03:21;;;;;;;22.33;17.15;;;;;;;22.03;36.92;100124.72;5070780;28;20028;-48
2021/10/21 10:05:54;;;;;;;22.83;17.55;;;;;;;21.03;38.78;100119.56;5069579;28;20529;-46
2021/10/21 10:08:20;;;;;;;23.85;16.58;;;;;;;21.33;38.66;100115.38;5070875;28;20063;-48
2021/10/21 10:10:48;;;;;;;21.67;15.85;;;;;;;20.99;38.90;100113.88;5070897;28;20021;-49
2021/10/21 10:13:13;;;;;;;20.65;15.45;;;;;;;22.01;37.67;100117.97;5070995;28;20036;-47
2021/10/21 10:15:39;;;;;;;20.05;14.57;;;;;;;22.93;36.12;100112.44;5071165;28;20028;-46
2021/10/21 10:18:06;;;;;;;23.80;16.05;;;;;;;23.37;34.84;100106.28;5071158;28;20031;-46
2021/10/21 10:20:32;;;;;;;25.60;16.77;;;;;;;23.44;34.69;100095.13;5069761;28;20028;-47
2021/10/21 10:22:58;;;;;;;23.08;16.75;;;;;;;23.13;35.01;100099.91;5069421;28;20024;-47
2021/10/21 10:25:24;;;;;;;22.77;16.17;;;;;;;23.01;35.43;100094.75;5031168;28;20021;-47
2021/10/21 10:27:59;;;;;;;19.10;14.70;;;;;;;23.44;34.67;100089.69;5029720;28;20343;-48
2021/10/21 10:30:43;;;;;;;21.73;15.23;;;;;;;23.97;33.24;100076.31;5030425;28;20031;-48
2021/10/21 10:33:08;;;;;;;18.75;13.40;;;;;;;23.40;34.19;100062.28;5030362;28;20049;-47
2021/10/21 10:35:36;;;;;;;16.48;13.10;;;;;;;23.70;34.02;100065.06;5030759;28;20083;-47
2021/10/21 10:38:03;;;;;;;16.73;13.60;;;;;;;24.35;33.69;100057.47;5029587;28;20105;-47
2021/10/21 10:40:39;;;;;;;18.02;13.68;;;;;;;24.18;32.96;100049.75;5030783;28;20032;-47
2021/10/21 10:43:05;;;;;;;21.67;13.40;;;;;;;24.26;33.47;100047.53;5031089;28;20026;-48
2021/10/21 10:45:57;;;;;;;17.92;12.55;;;;;;;24.76;32.78;100043.44;5030765;28;20402;-47
2021/10/21 10:48:48;;;;;;;20.58;13.13;;;;;;;25.21;31.87;100028.69;5043303;28;20041;-47
2021/10/21 10:51:14;;;;;;;16.52;13.68;;;;;;;24.94;31.63;100032.88;5050527;28;20021;-47
2021/10/21 10:53:47;;;;;;;20.50;13.88;;;;;;;24.40;32.27;100024.78;5050494;28;20405;-47
2021/10/21 10:56:38;;;;;;;19.95;13.32;;;;;;;23.51;34.34;100016.06;5050530;28;20104;-47
2021/10/21 10:59:17;;;;;;;18.20;13.30;;;;;;;23.66;33.53;100015.94;5048785;28;20033;-47
2021/10/21 11:01:43;;;;;;;19.98;14.50;;;;;;;23.72;33.63;100014.81;5048824;28;20021;-47
2021/10/21 11:04:08;;;;;;;17.13;12.57;;;;;;;23.51;34.66;99999.75;5050412;28;20032;-47
2021/10/21 11:06:34;;;;;;;13.75;11.95;;;;;;;24.23;33.98;100002.66;5050915;28;20481;-47
2021/10/21 11:09:07;;;;;;;15.85;12.68;;;;;;;24.70;33.45;100001.06;5048916;28;20327;-47
2021/10/21 11:11:42;;;;;;;20.35;12.45;;;;;;;24.66;32.61;99994.59;5048860;28;20017;-47